Accueil
METAR-TAF:

METAR-TAF

Aéroports :

Aéroport de Copenhague

Copenhague, Danemark

latitude: 55-37N, longitude: 012-39E, altitude: 5 m

Observation

Le bulletin a été fait il y a 20 minutes, à 03:50 UTC
Vent 5 kt de ouest/nord-ouest, variant entre ouest et nord-ouest
Température 10°C
Humidité 87%
Pression 1014 hPa
Visibilité 10 km ou plus
pas de nuages en-dessous de 1500 mètres et pas de cumulonimbus.

METAR: EKCH 230350Z 29005KT 260V320 CAVOK 10/08 Q1014 NOSIG

Heure: 06:10 (04:10 UTC)

Prévision

Le bulletin a été fait il y a 5 heures et 7 minutes, à 23:03 UTC
Prévision valable du 23 à 00 UTC au 23 à 24 UTC
Vent 15 kt de ouest/nord-ouest
Visibilité 10 km ou plus
Nuages épars à une hauteur de 2500 ft
Temporairement
du 23 à 06 UTC au 23 à 16 UTC
Nuages épars à une hauteur de 3500 ft, Cumulus congestus.

TAF: EKCH 222303Z 2300/2324 30015KT 9999 SCT025 TEMPO 2306/2316 SCT035TCU

Observations et prévisions météorologiques de plus de 4000 aéroports (messages METAR et TAF).

Les stations disponibles sont représentées par des disques jaunes et rouges sur la carte.

Passer la souris dessus pour voir le nom de la station.

Cliquer dessus pour voir les observations et prévisions météorologiques.

Pour changer de carte: cliquez sur les boutons verts avec une croix noire pour zoomer, sur le bouton vert avec un tiret pour effectuer un zoom arrière, ou sur les flèches vertes pour les cartes adjacentes.


METAR-TAF: